Time;durP1;ratioP1;P1;durP2;ratioP2;P2;SDS_P1;SDS_P2;PMS_P1;PMS_P2;Temp;Humidity;BMP_temperature;BMP_pressure;BME280_temperature;BME280_humidity;BME280_pressure;Samples;Min_cycle;Max_cycle;Signal;HPM_P1;HPM_P2
2023/01/15 00:01:29;;;;;;;49.45;16.42;;;;;;;1.69;68.36;101547.12;1690188;84;21220;-56
2023/01/15 00:04:36;;;;;;;53.63;17.15;;;;;;;1.70;68.34;101552.93;1690431;83;21323;-57
2023/01/15 00:07:43;;;;;;;38.40;14.03;;;;;;;1.68;68.35;101561.12;1690096;83;21271;-57
2023/01/15 00:10:49;;;;;;;47.23;14.95;;;;;;;1.66;68.28;101566.20;1690204;83;21406;-57
2023/01/15 00:13:55;;;;;;;49.75;13.13;;;;;;;1.61;68.29;101561.08;1690186;83;21224;-56
2023/01/15 00:17:01;;;;;;;44.40;12.30;;;;;;;1.59;68.27;101556.24;1692165;80;21228;-57
2023/01/15 00:20:06;;;;;;;55.12;12.73;;;;;;;1.61;68.33;101552.10;1690046;83;21310;-56
2023/01/15 00:27:37;;;;;;;54.42;11.65;;;;;;;1.62;68.40;101549.81;1690083;83;21248;-57
2023/01/15 00:29:48;;;;;;;59.73;12.73;;;;;;;1.62;68.39;101541.72;1690095;83;21230;-56
2023/01/15 00:32:54;;;;;;;55.23;10.55;;;;;;;1.63;68.36;101544.80;1690112;85;21765;-57
2023/01/15 00:36:00;;;;;;;51.85;11.90;;;;;;;1.61;68.26;101544.89;1690057;83;21217;-56
2023/01/15 00:39:08;;;;;;;74.30;12.85;;;;;;;1.60;68.24;101551.72;1690074;83;21769;-57
2023/01/15 00:42:15;;;;;;;62.23;11.95;;;;;;;1.59;68.28;101547.30;1690079;85;21224;-57
2023/01/15 00:45:23;;;;;;;54.08;12.20;;;;;;;1.60;68.26;101547.67;1689992;83;21216;-57
2023/01/15 00:48:28;;;;;;;64.12;12.23;;;;;;;1.59;68.25;101543.25;1690068;83;21209;-57
2023/01/15 00:51:34;;;;;;;50.90;12.18;;;;;;;1.60;68.29;101547.21;1690069;85;21335;-56
2023/01/15 00:54:34;;;;;;;60.67;12.35;;;;;;;1.60;68.29;101538.23;1690088;83;21287;-56
2023/01/15 00:57:39;;;;;;;67.40;11.90;;;;;;;1.61;68.29;101538.61;1690206;83;21756;-56
2023/01/15 01:00:45;;;;;;;66.62;11.28;;;;;;;1.63;68.30;101542.09;1690085;83;21236;-57
2023/01/15 01:03:52;;;;;;;72.30;11.93;;;;;;;1.62;68.26;101530.92;1690058;83;21212;-57
2023/01/15 01:06:59;;;;;;;53.83;11.63;;;;;;;1.60;68.27;101523.39;1672423;85;21248;-57
2023/01/15 01:10:05;;;;;;;63.17;11.20;;;;;;;1.62;68.31;101526.38;1690211;83;21227;-57
2023/01/15 01:13:12;;;;;;;51.33;11.48;;;;;;;1.59;68.20;101528.41;1690075;85;21355;-56
2023/01/15 01:16:42;;;;;;;59.50;11.88;;;;;;;1.58;68.15;101530.70;1689936;82;21557;-57
2023/01/15 01:19:48;;;;;;;58.48;13.25;;;;;;;1.58;68.19;101526.66;1679610;84;21256;-57
2023/01/15 01:22:58;;;;;;;54.53;10.78;;;;;;;1.57;68.16;101519.53;1657156;85;21414;-57
2023/01/15 01:26:04;;;;;;;51.50;12.58;;;;;;;1.55;68.21;101523.17;1672738;86;21284;-57
2023/01/15 01:29:09;;;;;;;54.23;12.50;;;;;;;1.54;68.24;101516.05;1637786;85;21205;-57
2023/01/15 01:32:15;;;;;;;51.70;10.78;;;;;;;1.54;68.23;101523.26;1679524;85;21552;-57
2023/01/15 01:35:22;;;;;;;48.73;12.07;;;;;;;1.53;68.24;101515.67;1679458;84;21284;-57
2023/01/15 01:38:28;;;;;;;56.70;11.93;;;;;;;1.52;68.27;101516.61;1659094;84;21288;-57
2023/01/15 01:41:36;;;;;;;48.08;10.98;;;;;;;1.53;68.28;101519.72;1679484;85;21185;-58
2023/01/15 01:44:55;;;;;;;45.58;10.25;;;;;;;1.53;68.25;101511.63;1679602;84;21316;-57
2023/01/15 01:48:06;;;;;;;39.48;10.05;;;;;;;1.52;68.17;101515.77;1679609;84;21229;-57
2023/01/15 01:51:12;;;;;;;38.45;10.43;;;;;;;1.50;68.12;101518.55;1679559;84;21725;-57
2023/01/15 01:54:16;;;;;;;40.33;10.70;;;;;;;1.41;67.94;101515.02;1679520;84;21241;-56
2023/01/15 01:57:23;;;;;;;46.95;11.18;;;;;;;1.36;68.10;101510.38;1672532;86;21808;-56
2023/01/15 02:00:30;;;;;;;47.80;11.22;;;;;;;1.35;68.13;101512.69;1655360;85;21284;-58
2023/01/15 02:03:39;;;;;;;50.35;10.85;;;;;;;1.36;68.14;101509.53;1672864;84;21206;-58
2023/01/15 02:06:46;;;;;;;44.60;10.85;;;;;;;1.37;68.14;101512.61;1672866;86;21197;-58
2023/01/15 02:09:52;;;;;;;47.53;10.95;;;;;;;1.37;68.21;101510.78;1679502;84;21213;-57
2023/01/15 02:13:18;;;;;;;46.10;9.93;;;;;;;1.39;68.26;101498.55;1657973;85;21466;-57
2023/01/15 02:16:36;;;;;;;45.08;11.05;;;;;;;1.39;68.19;101503.48;1679645;84;21217;-57
2023/01/15 02:20:27;;;;;;;50.23;11.25;;;;;;;1.40;68.21;101501.63;1689384;83;21248;-57
2023/01/15 02:23:53;;;;;;;42.60;11.97;;;;;;;1.40;68.22;101511.07;1690066;83;21212;-57
2023/01/15 02:27:17;;;;;;;44.73;11.22;;;;;;;1.40;68.33;101509.25;1690070;85;21260;-57
2023/01/15 02:30:28;;;;;;;47.45;11.33;;;;;;;1.41;68.32;101505.58;1690095;83;21765;-57
2023/01/15 02:33:47;;;;;;;46.83;12.00;;;;;;;1.39;68.28;101512.92;1690565;83;21217;-57
2023/01/15 02:36:58;;;;;;;47.78;10.80;;;;;;;1.40;68.30;101512.42;1690091;85;21256;-57
2023/01/15 02:40:05;;;;;;;58.48;12.60;;;;;;;1.39;68.37;101503.48;1690921;83;21216;-57
2023/01/15 02:43:14;;;;;;;48.95;12.47;;;;;;;1.39;68.45;101499.91;1690080;85;21224;-57
2023/01/15 02:46:20;;;;;;;48.02;12.18;;;;;;;1.41;68.42;101501.54;1690143;85;21197;-56
2023/01/15 02:49:27;;;;;;;55.35;11.95;;;;;;;1.40;68.37;101503.86;1690161;83;21280;-57
2023/01/15 02:52:37;;;;;;;49.03;12.00;;;;;;;1.38;68.40;101496.80;1690125;85;21260;-57
2023/01/15 02:55:47;;;;;;;56.58;14.20;;;;;;;1.40;68.46;101497.58;1690376;83;21264;-57
2023/01/15 02:58:56;;;;;;;41.13;12.93;;;;;;;1.38;68.40;101496.33;1691227;83;21330;-57
2023/01/15 03:02:08;;;;;;;53.17;13.75;;;;;;;1.39;68.38;101500.78;1690493;84;21284;-57
2023/01/15 03:05:17;;;;;;;46.35;13.25;;;;;;;1.40;68.37;101505.20;1690592;83;21236;-57
2023/01/15 03:08:22;;;;;;;49.93;12.88;;;;;;;1.38;68.35;101501.72;1691062;83;21324;-57
2023/01/15 03:11:28;;;;;;;36.48;11.05;;;;;;;1.39;68.40;101499.44;1690141;85;21252;-55
2023/01/15 03:14:58;;;;;;;42.35;12.73;;;;;;;1.38;68.40;101499.49;1690086;83;21216;-56
2023/01/15 03:18:05;;;;;;;47.93;12.50;;;;;;;1.37;68.33;101498.65;1690146;85;21260;-59
2023/01/15 03:21:14;;;;;;;45.17;11.75;;;;;;;1.25;68.10;101495.30;1641786;87;21413;-57
2023/01/15 03:24:21;;;;;;;56.25;12.47;;;;;;;1.24;68.16;101496.74;1641891;87;21248;-57
2023/01/15 03:27:28;;;;;;;46.45;11.97;;;;;;;1.22;68.20;101498.69;1642213;87;21253;-57
2023/01/15 03:30:35;;;;;;;41.30;11.03;;;;;;;1.22;68.35;101510.31;1641943;86;21285;-57
2023/01/15 03:33:43;;;;;;;35.48;12.00;;;;;;;1.23;68.39;101504.45;1641938;87;21209;-57
2023/01/15 03:36:48;;;;;;;34.95;11.25;;;;;;;1.24;68.42;101509.76;1641936;86;21280;-57
2023/01/15 03:39:55;;;;;;;46.50;12.35;;;;;;;1.25;68.46;101509.29;1642632;87;21221;-57
2023/01/15 03:46:53;;;;;;;52.75;12.30;;;;;;;1.25;68.47;101514.18;1641818;87;21229;-57
2023/01/15 03:50:15;;;;;;;44.27;11.75;;;;;;;1.25;68.46;101514.69;1642134;87;21272;-57
2023/01/15 03:53:34;;;;;;;38.00;11.97;;;;;;;1.25;68.52;101508.78;1640283;87;21257;-57
2023/01/15 03:56:59;;;;;;;32.28;11.35;;;;;;;1.25;68.51;101508.78;1641685;87;21280;-57
2023/01/15 04:00:10;;;;;;;35.40;11.63;;;;;;;1.27;68.54;101517.67;1641353;87;21846;-56
2023/01/15 04:03:15;;;;;;;39.63;13.32;;;;;;;1.28;68.54;101516.73;1641570;87;21229;-57
2023/01/15 04:06:25;;;;;;;45.88;15.70;;;;;;;1.29;68.55;101530.59;1642732;87;21595;-57
2023/01/15 04:09:30;;;;;;;53.28;18.87;;;;;;;1.26;68.44;101527.20;1641635;87;21293;-57
2023/01/15 04:12:37;;;;;;;54.33;21.95;;;;;;;1.25;68.46;101524.97;1641882;87;21797;-57
2023/01/15 04:15:44;;;;;;;53.95;22.00;;;;;;;1.27;68.44;101532.97;1626924;87;21285;-56
2023/01/15 04:18:51;;;;;;;50.20;18.55;;;;;;;1.26;68.44;101532.13;1641526;87;21236;-58
2023/01/15 04:21:58;;;;;;;50.20;19.55;;;;;;;1.24;68.42;101534.50;1691100;82;21532;-58
2023/01/15 04:25:03;;;;;;;39.25;15.18;;;;;;;1.25;68.46;101540.30;1689622;83;21324;-58
2023/01/15 04:28:08;;;;;;;41.88;14.68;;;;;;;1.27;68.51;101535.20;1689575;85;21208;-57
2023/01/15 04:31:14;;;;;;;40.83;12.75;;;;;;;1.29;68.49;101534.64;1689607;83;21232;-56
2023/01/15 04:34:22;;;;;;;45.40;13.93;;;;;;;1.28;68.53;101532.91;1690050;83;21268;-56
2023/01/15 04:37:28;;;;;;;62.83;22.50;;;;;;;1.25;68.46;101535.76;1689806;84;21228;-56
2023/01/15 04:44:08;;;;;;;44.58;15.55;;;;;;;1.18;68.41;101531.69;1689812;83;21367;-56
2023/01/15 04:47:14;;;;;;;54.77;15.88;;;;;;;1.18;68.50;101517.33;1689881;85;21307;-57
2023/01/15 04:50:21;;;;;;;38.28;13.88;;;;;;;1.18;68.51;101516.86;1689856;83;21213;-57
2023/01/15 04:53:27;;;;;;;37.85;13.95;;;;;;;1.20;68.54;101504.64;1690073;83;21268;-57
2023/01/15 04:56:33;;;;;;;35.38;13.80;;;;;;;1.20;68.52;101502.82;1690050;85;21216;-56
2023/01/15 04:59:40;;;;;;;41.68;12.95;;;;;;;1.20;68.50;101512.26;1690146;83;21215;-57
2023/01/15 05:02:46;;;;;;;33.60;13.15;;;;;;;1.21;68.49;101509.94;1689972;85;21193;-57
2023/01/15 05:05:51;;;;;;;38.85;14.73;;;;;;;1.23;68.55;101513.42;1690087;85;21213;-56
2023/01/15 05:08:59;;;;;;;51.90;16.50;;;;;;;1.24;68.55;101512.45;1690120;83;21228;-57
2023/01/15 05:12:04;;;;;;;35.50;13.55;;;;;;;1.23;68.53;101504.45;1690264;83;21208;-56
2023/01/15 05:15:12;;;;;;;39.27;13.30;;;;;;;1.21;68.53;101503.20;1690172;83;21414;-56
2023/01/15 05:18:17;;;;;;;38.85;14.13;;;;;;;1.22;68.59;101506.27;1690314;84;21773;-57
2023/01/15 05:21:26;;;;;;;37.08;12.80;;;;;;;1.24;68.65;101494.05;1688710;81;21229;-56
2023/01/15 05:24:32;;;;;;;37.50;12.75;;;;;;;1.23;68.66;101491.85;1679614;84;21229;-57
2023/01/15 05:27:38;;;;;;;31.30;11.85;;;;;;;1.24;68.64;101494.05;1679400;85;21205;-56
2023/01/15 05:30:47;;;;;;;40.08;13.53;;;;;;;1.24;68.62;101497.63;1679572;84;21225;-57
2023/01/15 05:33:54;;;;;;;31.12;14.47;;;;;;;1.25;68.63;101489.06;1679414;84;21300;-56
2023/01/15 05:37:01;;;;;;;42.17;13.10;;;;;;;1.24;68.68;101489.53;1679417;85;21266;-56
2023/01/15 05:40:06;;;;;;;32.78;12.63;;;;;;;1.24;68.63;101489.53;1679595;84;21221;-57
2023/01/15 05:43:13;;;;;;;37.30;13.80;;;;;;;1.26;68.60;101493.48;1679355;84;21177;-56
2023/01/15 05:46:18;;;;;;;43.75;14.47;;;;;;;1.26;68.58;101496.18;1656770;85;21784;-56
2023/01/15 05:49:28;;;;;;;51.48;17.10;;;;;;;1.26;68.57;101494.83;1651100;85;21228;-56
2023/01/15 05:52:34;;;;;;;45.23;15.45;;;;;;;1.25;68.54;101500.70;1651175;87;21741;-57
2023/01/15 05:55:40;;;;;;;47.10;16.05;;;;;;;1.26;68.61;101504.27;1651304;85;22052;-57
2023/01/15 05:58:45;;;;;;;37.35;16.50;;;;;;;1.27;68.62;101509.58;1651169;85;21248;-55
2023/01/15 06:01:51;;;;;;;42.67;16.57;;;;;;;1.26;68.46;101511.02;1651235;87;21237;-56
2023/01/15 06:04:57;;;;;;;38.17;14.15;;;;;;;1.13;68.38;101512.67;1625894;87;21297;-56
2023/01/15 06:08:03;;;;;;;43.87;14.43;;;;;;;1.13;68.52;101512.67;1651357;85;21276;-56
2023/01/15 06:11:10;;;;;;;38.55;13.28;;;;;;;1.14;68.58;101519.33;1650819;85;21261;-57
2023/01/15 06:14:18;;;;;;;42.60;14.18;;;;;;;1.12;68.54;101515.88;1651047;85;21319;-57
2023/01/15 06:17:24;;;;;;;40.88;15.43;;;;;;;1.13;68.65;101517.60;1673475;84;21226;-56
2023/01/15 06:20:32;;;;;;;44.30;14.53;;;;;;;1.18;68.68;101515.98;1672866;84;21242;-56
2023/01/15 06:23:39;;;;;;;41.25;14.75;;;;;;;1.23;68.72;101528.73;1668908;84;22182;-56
2023/01/15 06:26:46;;;;;;;37.98;15.18;;;;;;;1.28;68.76;101525.28;1667257;85;21284;-56
2023/01/15 06:29:53;;;;;;;41.65;18.57;;;;;;;1.32;68.75;101520.09;1668646;84;21398;-56
2023/01/15 06:33:00;;;;;;;38.67;13.70;;;;;;;1.36;68.77;101527.91;1667658;84;21232;-56
2023/01/15 06:36:13;;;;;;;30.08;13.43;;;;;;;1.40;68.81;101516.00;1667284;84;21379;-57
2023/01/15 06:39:18;;;;;;;35.13;12.05;;;;;;;1.41;68.65;101519.58;1647529;85;21229;-57
2023/01/15 06:49:11;;;;;;;32.55;11.97;;;;;;;1.50;68.56;101508.23;1668015;84;20219;-57
2023/01/15 06:52:16;;;;;;;31.15;12.90;;;;;;;1.47;68.55;101509.27;1669010;84;21232;-56
2023/01/15 06:55:24;;;;;;;33.50;12.05;;;;;;;1.50;68.62;101507.76;1667425;85;21612;-57
2023/01/15 06:58:30;;;;;;;32.10;12.73;;;;;;;1.55;68.62;101504.78;1669279;85;21213;-56
2023/01/15 07:01:38;;;;;;;35.80;13.10;;;;;;;1.55;68.56;101505.63;1667077;84;21204;-56
2023/01/15 07:04:46;;;;;;;33.88;12.63;;;;;;;1.58;68.55;101509.99;1668154;84;21374;-56
2023/01/15 07:07:52;;;;;;;27.95;11.33;;;;;;;1.61;68.54;101504.41;1666941;86;21216;-57
2023/01/15 07:10:58;;;;;;;39.42;13.45;;;;;;;1.65;68.58;101507.30;1667391;85;21205;-56
2023/01/15 07:14:07;;;;;;;28.87;11.20;;;;;;;1.68;68.56;101508.49;1666867;86;21236;-57
2023/01/15 07:17:13;;;;;;;31.23;12.65;;;;;;;1.67;68.38;101501.80;1666860;84;21197;-56
2023/01/15 07:20:20;;;;;;;31.50;11.08;;;;;;;1.66;68.30;101493.33;1668281;86;21378;-56
2023/01/15 07:23:28;;;;;;;38.85;13.80;;;;;;;1.65;68.24;101501.05;1669973;83;21312;-57
2023/01/15 07:26:35;;;;;;;43.35;17.37;;;;;;;1.60;68.15;101503.16;1683895;85;21370;-58
2023/01/15 07:29:42;;;;;;;28.55;12.40;;;;;;;1.58;68.11;101506.41;1684550;84;21330;-56
2023/01/15 07:32:49;;;;;;;32.40;15.53;;;;;;;1.60;68.08;101512.60;1689103;85;21268;-57
2023/01/15 07:35:55;;;;;;;38.45;17.90;;;;;;;1.66;68.21;101509.05;1689653;85;21228;-57
2023/01/15 07:39:03;;;;;;;36.48;11.73;;;;;;;1.73;68.35;101505.52;1690114;83;21248;-57
2023/01/15 07:52:24;;;;;;;23.90;11.95;;;;;;;1.94;68.53;101496.08;1689219;83;21796;-57
2023/01/15 07:55:33;;;;;;;28.12;10.72;;;;;;;2.04;68.47;101485.99;1690555;83;21228;-57
2023/01/15 07:58:39;;;;;;;21.42;9.98;;;;;;;2.06;68.33;101494.00;1672106;85;21444;-57
2023/01/15 08:01:45;;;;;;;35.60;13.05;;;;;;;2.12;68.33;101488.21;1673183;85;21394;-57
2023/01/15 08:04:52;;;;;;;31.48;12.88;;;;;;;2.10;68.18;101482.91;1693576;83;21205;-57
2023/01/15 08:08:00;;;;;;;54.77;19.15;;;;;;;2.09;67.94;101491.11;1690139;85;21414;-56
2023/01/15 08:18:00;;;;;;;23.85;9.43;;;;;;;1.94;67.79;101485.28;1684476;85;21239;-57
2023/01/15 08:21:08;;;;;;;30.12;11.05;;;;;;;2.00;67.99;101486.28;1683976;84;21283;-58
2023/01/15 08:24:14;;;;;;;28.25;10.48;;;;;;;1.86;67.71;101485.77;1684686;84;21447;-56
2023/01/15 08:27:19;;;;;;;28.90;10.78;;;;;;;1.88;68.06;101485.20;1667020;84;21788;-57
2023/01/15 08:30:29;;;;;;;23.90;9.13;;;;;;;1.95;68.09;101485.70;1666802;86;21216;-57
2023/01/15 08:33:36;;;;;;;26.73;9.70;;;;;;;1.96;68.08;101486.95;1635156;85;21214;-57
2023/01/15 08:36:42;;;;;;;33.75;11.55;;;;;;;1.99;68.12;101484.52;1669224;84;21256;-57
2023/01/15 08:39:51;;;;;;;27.62;9.63;;;;;;;2.07;68.24;101479.52;1665712;84;21248;-57
2023/01/15 08:42:58;;;;;;;27.82;10.28;;;;;;;2.16;68.28;101482.98;1668142;84;21742;-57
2023/01/15 08:46:05;;;;;;;29.77;10.20;;;;;;;2.25;68.38;101477.03;1666905;84;21272;-58
2023/01/15 08:49:12;;;;;;;28.02;11.08;;;;;;;2.30;68.22;101476.27;1665711;86;21272;-58
2023/01/15 08:52:17;;;;;;;23.25;8.80;;;;;;;2.28;67.98;101473.66;1666074;84;21213;-56
2023/01/15 08:55:23;;;;;;;26.37;9.78;;;;;;;2.30;68.05;101472.22;1667265;84;21237;-56
2023/01/15 08:58:32;;;;;;;30.80;11.05;;;;;;;2.37;68.15;101481.17;1666132;86;21357;-57
2023/01/15 09:01:39;;;;;;;32.30;12.10;;;;;;;2.40;68.10;101479.62;1666002;84;21385;-57
2023/01/15 09:04:46;;;;;;;23.12;11.75;;;;;;;2.39;67.93;101473.85;1666891;85;21728;-57
2023/01/15 09:07:53;;;;;;;23.07;10.30;;;;;;;2.43;68.00;101471.33;1667502;84;21216;-57
2023/01/15 09:11:00;;;;;;;28.15;8.85;;;;;;;2.51;68.10;101466.30;1666816;85;21741;-56
2023/01/15 09:14:06;;;;;;;23.75;9.63;;;;;;;2.54;67.98;101471.50;1666679;86;21243;-56
2023/01/15 09:17:13;;;;;;;23.12;9.05;;;;;;;2.60;68.01;101466.20;1666215;84;21245;-57
2023/01/15 09:20:21;;;;;;;28.42;9.33;;;;;;;2.66;68.07;101454.98;1656014;85;21312;-56
2023/01/15 09:23:27;;;;;;;29.48;10.05;;;;;;;2.73;67.99;101445.48;1672637;84;21256;-58
2023/01/15 09:26:39;;;;;;;30.55;10.05;;;;;;;2.81;67.94;101453.97;1675242;83;21256;-58
2023/01/15 09:29:47;;;;;;;22.20;10.55;;;;;;;2.87;67.91;101450.38;1671974;84;21316;-56
2023/01/15 09:32:56;;;;;;;19.92;10.38;;;;;;;2.87;67.77;101451.73;1672227;84;21241;-56
2023/01/15 09:36:02;;;;;;;28.80;10.45;;;;;;;2.86;67.75;101449.13;1673488;85;21202;-57
2023/01/15 09:39:07;;;;;;;21.00;9.38;;;;;;;2.88;67.78;101452.61;1671761;84;21257;-57
2023/01/15 09:42:30;;;;;;;16.12;7.95;;;;;;;2.80;67.57;101446.84;1672204;84;21233;-56
2023/01/15 09:45:39;;;;;;;23.07;8.40;;;;;;;2.74;67.33;101448.09;1671266;85;21304;-57
2023/01/15 09:49:08;;;;;;;23.90;9.75;;;;;;;2.71;67.56;101442.05;1673163;83;21604;-55
2023/01/15 09:52:30;;;;;;;23.75;9.90;;;;;;;2.82;67.78;101435.45;1671153;85;21293;-57
2023/01/15 09:55:44;;;;;;;19.63;9.63;;;;;;;2.94;67.89;101427.86;1672793;85;21481;-57
2023/01/15 09:58:49;;;;;;;17.57;8.05;;;;;;;3.07;67.94;101431.49;1671510;85;21241;-57
2023/01/15 10:01:54;;;;;;;16.15;7.95;;;;;;;3.11;67.67;101421.34;1672937;84;21217;-57
2023/01/15 10:05:05;;;;;;;17.75;8.18;;;;;;;3.14;67.64;101430.09;1666519;84;21229;-57
2023/01/15 10:08:19;;;;;;;19.42;7.70;;;;;;;3.17;67.59;101424.50;1672440;84;21257;-57
2023/01/15 10:12:34;;;;;;;16.77;8.73;;;;;;;3.12;67.38;101417.66;1672172;85;21790;-57
2023/01/15 10:14:44;;;;;;;20.60;7.95;;;;;;;3.08;67.29;101419.69;1672458;84;21245;-58
2023/01/15 10:17:56;;;;;;;22.53;8.80;;;;;;;3.00;67.10;101424.74;1672070;84;21221;-57
2023/01/15 10:21:29;;;;;;;14.90;7.90;;;;;;;2.92;67.13;101419.85;1672065;84;21471;-53
2023/01/15 10:24:46;;;;;;;14.45;7.65;;;;;;;2.93;67.32;101420.73;1672272;84;21237;-50
2023/01/15 10:27:56;;;;;;;21.68;7.85;;;;;;;2.98;67.53;101411.83;1674009;85;21256;-51
2023/01/15 10:31:05;;;;;;;18.35;8.35;;;;;;;3.00;67.47;101405.34;1678845;85;21252;-53
2023/01/15 10:34:34;;;;;;;17.12;7.67;;;;;;;3.05;67.56;101400.97;1678893;84;21264;-51
2023/01/15 10:38:12;;;;;;;15.43;7.55;;;;;;;3.08;67.56;101394.50;1620500;87;21598;-51
2023/01/15 10:41:30;;;;;;;16.90;8.10;;;;;;;3.08;67.42;101392.16;1605267;87;21569;-51
2023/01/15 10:44:54;;;;;;;15.25;8.00;;;;;;;3.06;67.33;101394.58;1641685;86;21252;-52
2023/01/15 10:48:07;;;;;;;12.23;6.65;;;;;;;3.09;67.51;101380.88;1641231;86;21268;-52
2023/01/15 10:51:27;;;;;;;13.95;7.90;;;;;;;3.11;67.44;101382.12;1641208;87;21224;-52
2023/01/15 10:54:51;;;;;;;17.73;7.47;;;;;;;3.12;67.46;101375.25;1635588;86;21235;-52
2023/01/15 10:58:07;;;;;;;15.40;8.55;;;;;;;3.12;67.47;101366.26;1641317;87;21228;-53
2023/01/15 11:01:20;;;;;;;11.75;7.35;;;;;;;3.07;67.18;101362.52;1641763;87;21267;-52
2023/01/15 11:04:26;;;;;;;17.95;9.60;;;;;;;2.98;67.19;101361.30;1641951;87;21252;-52
2023/01/15 11:07:39;;;;;;;13.48;7.92;;;;;;;3.00;67.31;101352.59;1641859;87;21473;-52
2023/01/15 11:10:46;;;;;;;18.27;8.18;;;;;;;3.05;67.40;101362.63;1669973;84;21299;-51
2023/01/15 11:20:51;;;;;;;;;;;;;;;2.91;67.18;101358.64;1680568;85;21201;-51
2023/01/15 11:23:59;;;;;;;13.00;7.55;;;;;;;2.94;67.30;101344.91;1678512;84;20571;-52
2023/01/15 11:27:05;;;;;;;13.55;7.10;;;;;;;2.91;67.37;101345.13;1678946;85;21285;-51
2023/01/15 11:30:14;;;;;;;16.97;9.10;;;;;;;2.86;67.11;101350.44;1689252;83;21196;-51
2023/01/15 11:33:32;;;;;;;13.60;7.42;;;;;;;2.74;66.94;101347.22;1689361;85;21228;-52
2023/01/15 11:36:39;;;;;;;15.20;8.15;;;;;;;2.64;66.86;101347.45;1688326;85;21762;-51
2023/01/15 11:39:47;;;;;;;17.37;7.55;;;;;;;2.62;67.15;101346.67;1688631;83;21232;-52
2023/01/15 11:53:31;;;;;;;18.50;8.45;;;;;;;2.48;67.21;101336.79;1686353;83;21260;-52
2023/01/15 11:56:38;;;;;;;18.80;9.13;;;;;;;2.43;67.37;101330.81;1689340;83;21401;-52
2023/01/15 11:59:44;;;;;;;18.40;8.50;;;;;;;2.43;67.37;101330.81;1689719;83;21776;-53
2023/01/15 12:02:50;;;;;;;14.00;7.62;;;;;;;2.46;67.49;101329.73;1689736;85;21201;-52
2023/01/15 12:06:07;;;;;;;14.23;8.00;;;;;;;2.37;67.30;101326.30;1673536;85;21272;-52
2023/01/15 12:09:36;;;;;;;21.00;9.83;;;;;;;2.33;67.29;101327.48;1688856;83;21271;-53
2023/01/15 12:13:08;;;;;;;23.35;10.78;;;;;;;2.25;67.13;101323.06;1688014;85;21307;-52
2023/01/15 12:16:31;;;;;;;15.08;9.15;;;;;;;2.17;67.14;101320.00;1686216;83;21463;-52
2023/01/15 12:20:07;;;;;;;15.78;9.10;;;;;;;2.13;67.16;101317.97;1659354;85;21248;-52
2023/01/15 12:23:30;;;;;;;17.35;8.60;;;;;;;2.08;67.20;101317.39;1659760;86;21218;-52
2023/01/15 12:26:38;;;;;;;15.85;8.63;;;;;;;2.13;67.48;101316.62;1660518;84;21280;-52
2023/01/15 12:29:53;;;;;;;20.62;9.23;;;;;;;2.19;67.58;101316.22;1659204;83;21213;-52
2023/01/15 12:33:21;;;;;;;21.95;11.97;;;;;;;2.22;67.48;101319.22;1654546;87;21737;-52
2023/01/15 12:36:31;;;;;;;20.40;10.10;;;;;;;2.18;67.28;101319.02;1659858;84;22184;-52
2023/01/15 12:39:55;;;;;;;19.42;10.63;;;;;;;2.15;67.22;101316.52;1683402;84;21236;-52
2023/01/15 12:46:36;;;;;;;26.10;11.20;;;;;;;2.07;67.11;101314.80;1681664;85;21280;-52
2023/01/15 12:49:50;;;;;;;20.17;9.90;;;;;;;2.04;67.19;101321.75;1682332;84;21410;-52
2023/01/15 12:52:58;;;;;;;16.42;9.45;;;;;;;2.06;67.27;101323.88;1682717;84;21252;-53
2023/01/15 12:56:28;;;;;;;16.65;9.60;;;;;;;2.06;67.25;101322.52;1683288;84;21737;-52
2023/01/15 12:59:41;;;;;;;20.48;9.83;;;;;;;1.94;67.10;101326.00;1681834;84;21260;-53
2023/01/15 13:02:55;;;;;;;22.07;10.75;;;;;;;1.87;67.15;101331.42;1680566;85;21212;-53
2023/01/15 13:06:03;;;;;;;16.07;9.00;;;;;;;1.86;67.20;101333.24;1678037;84;21197;-53
2023/01/15 13:09:44;;;;;;;21.93;11.18;;;;;;;1.83;67.09;101335.27;1681277;84;21300;-53
2023/01/15 13:12:50;;;;;;;19.45;10.55;;;;;;;1.76;66.98;101335.28;1681514;85;21746;-53
2023/01/15 13:16:47;;;;;;;18.65;9.50;;;;;;;1.68;66.99;101330.84;1681428;85;21224;-53
2023/01/15 13:20:39;;;;;;;19.87;10.63;;;;;;;1.65;67.03;101338.64;1653899;85;21300;-53
2023/01/15 13:24:07;;;;;;;22.48;12.25;;;;;;;1.65;67.17;101335.09;1653851;85;21600;-52
2023/01/15 13:27:46;;;;;;;22.73;10.75;;;;;;;1.70;67.30;101331.63;1654066;86;21861;-52
2023/01/15 13:31:15;;;;;;;20.40;11.38;;;;;;;1.78;67.54;101337.38;1659690;81;21617;-52
2023/01/15 13:34:49;;;;;;;27.20;12.80;;;;;;;1.85;67.67;101337.39;1661795;85;21247;-51
2023/01/15 13:37:57;;;;;;;25.75;12.50;;;;;;;1.84;67.54;101322.17;1667894;85;21233;-52
2023/01/15 13:41:02;;;;;;;22.37;11.55;;;;;;;1.84;67.45;101311.37;1672935;85;21204;-52
2023/01/15 13:44:09;;;;;;;22.48;11.93;;;;;;;1.88;67.54;101313.77;1684834;83;21252;-54
2023/01/15 13:47:20;;;;;;;20.35;10.25;;;;;;;1.91;67.54;101313.58;1660905;86;21233;-53
2023/01/15 13:50:36;;;;;;;20.52;9.55;;;;;;;1.90;67.42;101313.20;1661378;85;21670;-52
2023/01/15 13:53:52;;;;;;;27.02;13.15;;;;;;;1.86;67.25;101312.12;1662597;85;21762;-52
2023/01/15 13:56:57;;;;;;;23.42;13.03;;;;;;;1.82;67.22;101309.24;1684482;84;21422;-52
2023/01/15 14:00:03;;;;;;;30.17;13.32;;;;;;;1.76;67.12;101312.34;1664547;83;21236;-53
2023/01/15 14:03:34;;;;;;;23.83;11.18;;;;;;;1.71;67.20;101299.62;1660512;86;21216;-53
2023/01/15 14:06:54;;;;;;;23.15;10.53;;;;;;;1.71;67.17;101301.84;1660722;86;21858;-52
2023/01/15 14:10:00;;;;;;;44.25;17.02;;;;;;;1.65;67.16;101300.86;1644089;86;21804;-52
2023/01/15 14:13:21;;;;;;;37.83;14.98;;;;;;;1.63;67.21;101297.88;1661706;86;21642;-53
2023/01/15 14:16:33;;;;;;;32.48;12.23;;;;;;;1.61;67.16;101293.06;1661854;86;21284;-52
2023/01/15 14:20:04;;;;;;;22.27;10.70;;;;;;;1.53;67.30;101300.30;1662947;85;21236;-52
2023/01/15 14:23:33;;;;;;;28.65;12.20;;;;;;;1.53;67.30;101300.30;1685739;85;22406;-53
2023/01/15 14:26:56;;;;;;;36.95;16.37;;;;;;;1.51;67.27;101300.86;1689210;85;21212;-54
2023/01/15 14:30:17;;;;;;;29.20;15.00;;;;;;;1.57;67.44;101292.88;1689224;83;21280;-52
2023/01/15 14:33:42;;;;;;;29.92;13.75;;;;;;;1.57;67.50;101296.42;1687138;85;21781;-53
2023/01/15 14:36:58;;;;;;;26.25;14.80;;;;;;;1.62;67.56;101294.81;1688664;85;21375;-52
2023/01/15 14:40:08;;;;;;;33.53;16.00;;;;;;;1.64;67.57;101296.91;1687769;83;21386;-53
2023/01/15 14:43:19;;;;;;;32.20;14.47;;;;;;;1.62;67.41;101303.75;1660834;86;21276;-55
2023/01/15 14:46:40;;;;;;;28.70;14.45;;;;;;;1.53;67.13;101300.30;1685444;83;21261;-53
2023/01/15 14:49:52;;;;;;;25.32;12.75;;;;;;;1.39;66.97;101301.17;1688422;83;21383;-52
2023/01/15 14:53:01;;;;;;;29.65;13.62;;;;;;;1.29;67.02;101303.16;1687653;83;21835;-53
2023/01/15 14:56:28;;;;;;;37.85;17.12;;;;;;;1.25;67.17;101309.22;1690064;83;21228;-52
2023/01/15 14:59:46;;;;;;;29.02;13.43;;;;;;;1.20;67.10;101316.75;1689251;85;21284;-54
2023/01/15 15:02:54;;;;;;;29.55;12.35;;;;;;;1.17;67.20;101313.38;1688700;84;21196;-53
2023/01/15 15:06:00;;;;;;;30.60;13.15;;;;;;;1.18;67.33;101313.27;1666178;85;21217;-53
2023/01/15 15:09:12;;;;;;;27.62;13.55;;;;;;;1.22;67.38;101316.16;1680758;83;21284;-53
2023/01/15 15:12:41;;;;;;;30.92;16.15;;;;;;;1.22;67.36;101318.85;1660209;84;21211;-53
2023/01/15 15:16:06;;;;;;;38.98;16.57;;;;;;;1.25;67.44;101328.60;1683884;83;21280;-51
2023/01/15 15:19:20;;;;;;;35.50;17.12;;;;;;;1.27;67.46;101335.63;1682311;83;21271;-51
2023/01/15 15:22:27;;;;;;;31.93;18.57;;;;;;;1.28;67.43;101333.34;1687150;85;21551;-52
2023/01/15 15:25:38;;;;;;;48.10;20.25;;;;;;;1.26;67.32;101327.63;1688416;83;21310;-54
2023/01/15 15:28:45;;;;;;;47.35;18.48;;;;;;;1.25;67.27;101336.70;1688893;83;21816;-54
2023/01/15 15:32:02;;;;;;;42.38;16.45;;;;;;;1.19;67.24;101332.52;1688367;85;21809;-52
2023/01/15 15:35:08;;;;;;;33.40;16.55;;;;;;;1.11;67.14;101339.37;1687919;83;21263;-52
2023/01/15 15:38:14;;;;;;;34.90;15.88;;;;;;;1.02;67.21;101338.55;1687487;85;21848;-52